Svartfoss — V2PR3 — position and weather

sailwx.info

Track history (hours):
 
Tides and Currents Weather Stations Pressure Air Temp Water Temp Dewpoint Dewpoint Depression Visibility Wind Speed Wind Dir Waves Ship Positions

Svartfoss

Last reported at 2017-Apr-30 11:00 UTC. Time now 2017-Apr-30 11:07 UTC.
Position N 59°37' E 005°17'.

Length 80 m; draft 5.6 m.

Type: Cargo ship. MMSI: 304882000.

Date/timePositionNaut miles runAvg speedWind from/ knotsBaromVisibWave heightAir tempDewpointWater temp
2017-Apr-30 11:00N 59°37' E 005°17'715.2
2017-Apr-30 10:30N 59°43' E 005°26'714.0
2017-Apr-30 10:00N 59°49' E 005°33'713.8
2017-Apr-30 09:30N 59°55' E 005°29'713.5
2017-Apr-30 09:00N 60°01' E 005°20'714.3
2017-Apr-30 08:30N 60°08' E 005°17'714.3
2017-Apr-30 08:00N 60°14' E 005°10'713.1
2017-Apr-30 07:30N 60°20' E 005°11'5 9.7
2017-Apr-30 07:00N 60°24' E 005°18'1 1.7
2017-Apr-30 06:30N 60°23' E 005°19'0 0.0
2017-Apr-30 06:00N 60°23' E 005°19'0 0.0
2017-Apr-30 05:30N 60°23' E 005°19'0 0.9
2017-Apr-30 05:00N 60°23' E 005°18'612.1
2017-Apr-30 04:30N 60°29' E 005°14'714.5
2017-Apr-30 04:00N 60°33' E 005°01'612.5
2017-Apr-30 03:30N 60°38' E 004°54'714.3
2017-Apr-30 03:00N 60°44' E 004°47'713.8
2017-Apr-30 02:30N 60°51' E 004°46'815.0
2017-Apr-30 02:00N 60°59' E 004°45'714.6
2017-Apr-30 01:31N 61°06' E 004°44'714.5
2017-Apr-30 01:00N 61°13' E 004°41'4 8.6
2017-Apr-30 00:30N 61°17' E 004°38'0 0.1
2017-Apr-30 00:00N 61°17' E 004°38'4 8.5
2017-Apr-29 23:30N 61°17' E 004°47'714.6
2017-Apr-29 23:00N 61°24' E 004°50'714.4
2017-Apr-29 22:30N 61°30' E 004°59'713.1
2017-Apr-29 21:59N 61°37' E 004°58'714.6
2017-Apr-29 21:30N 61°44' E 004°58'714.8
2017-Apr-29 21:00N 61°49' E 005°09'4 7.9
2017-Apr-29 20:30N 61°53' E 005°11'611.9
2017-Apr-29 20:00N 61°59' E 005°09'714.7
2017-Apr-29 19:30N 62°06' E 005°06'713.8
2017-Apr-29 19:00N 62°13' E 005°07'815.2
2017-Apr-29 18:31N 62°16' E 005°21'715.0
2017-Apr-29 18:00N 62°18' E 005°36'713.0
2017-Apr-29 17:30N 62°22' E 005°48'713.7
2017-Apr-29 17:00N 62°26' E 005°60'4 9.0
2017-Apr-29 16:30N 62°28' E 006°09'0 0.2
2017-Apr-29 16:00N 62°28' E 006°08'0 0.0
2017-Apr-29 15:30N 62°28' E 006°08'0 0.0
2017-Apr-29 15:00N 62°28' E 006°08'0 0.0
2017-Apr-29 14:30N 62°28' E 006°08'0 0.0
2017-Apr-29 13:30N 62°28' E 006°08'1 2.2
2017-Apr-29 13:00N 62°28' E 006°10'2 3.2
2017-Apr-29 12:30N 62°29' E 006°11'3 6.4
2017-Apr-29 12:00N 62°29' E 006°18'0 0.0
2017-Apr-29 11:30N 62°29' E 006°18'0 0.0
2017-Apr-29 11:00N 62°29' E 006°18'0 0.0
2017-Apr-29 10:30N 62°29' E 006°18'3 5.5
2017-Apr-29 09:59N 62°30' E 006°24'0 0.0
2017-Apr-29 09:30N 62°30' E 006°24'0 0.0
2017-Apr-29 09:00N 62°30' E 006°24'1 1.3
2017-Apr-29 08:30N 62°30' E 006°23'0 0.0
2017-Apr-29 08:00N 62°30' E 006°23'0 0.6
2017-Apr-29 07:30N 62°30' E 006°23'511.0
2017-Apr-29 07:00N 62°29' E 006°12'0 0.1
2017-Apr-29 06:30N 62°29' E 006°11'0 0.0
2017-Apr-29 06:00N 62°29' E 006°11'1 2.5
2017-Apr-29 05:30N 62°29' E 006°09'1 1.3
2017-Apr-29 05:00N 62°28' E 006°08'510.6
2017-Apr-29 04:31N 62°33' E 006°11'611.7
2017-Apr-29 04:00N 62°38' E 006°20'713.7
2017-Apr-29 03:30N 62°43' E 006°29'714.1
2017-Apr-29 03:00N 62°49' E 006°37'713.8
2017-Apr-29 02:30N 62°55' E 006°46'713.5
2017-Apr-29 02:01N 62°59' E 006°57'714.4
2017-Apr-29 01:30N 63°02' E 007°11'714.4
2017-Apr-29 01:00N 63°05' E 007°26'714.5
2017-Apr-29 00:31N 63°08' E 007°40'714.4
2017-Apr-29 00:01N 63°12' E 007°53'714.3
2017-Apr-28 23:31N 63°16' E 008°06'713.8
2017-Apr-28 23:01N 63°20' E 008°19'714.1
2017-Apr-28 22:30N 63°24' E 008°32'714.5
2017-Apr-28 22:00N 63°27' E 008°47'714.5
2017-Apr-28 21:30N 63°29' E 009°02'713.7
2017-Apr-28 21:00N 63°33' E 009°15'2 3.5
2017-Apr-28 20:30N 63°34' E 009°12'0 0.0
2017-Apr-28 19:59N 63°34' E 009°12'0 0.0
2017-Apr-28 19:30N 63°34' E 009°12'0 0.0
2017-Apr-28 18:59N 63°34' E 009°12'3 5.5
2017-Apr-28 18:30N 63°36' E 009°15'613.0
2017-Apr-28 18:00N 63°43' E 009°18'714.5
2017-Apr-28 17:30N 63°46' E 009°32'714.3
2017-Apr-28 17:00N 63°52' E 009°42'713.9
2017-Apr-28 16:30N 63°58' E 009°51'713.4
2017-Apr-28 16:00N 64°03' E 010°01'3 5.0
2017-Apr-28 15:30N 64°05' E 010°00'713.9
2017-Apr-28 15:00N 64°11' E 010°09'1313.4
2017-Apr-28 14:00N 64°23' E 010°24'713.7
2017-Apr-28 13:30N 64°29' E 010°29'714.4
2017-Apr-28 13:00N 64°35' E 010°39'714.4
2017-Apr-28 12:30N 64°40' E 010°49'714.4
2017-Apr-28 12:00N 64°45' E 011°01'714.2
2017-Apr-28 11:30N 64°51' E 011°12'1 2.4
2017-Apr-28 11:00N 64°52' E 011°14'0 0.0
2017-Apr-28 10:30N 64°52' E 011°14'4 7.3
2017-Apr-28 10:00N 64°54' E 011°21'714.4
2017-Apr-28 09:30N 64°58' E 011°34'713.7
2017-Apr-28 09:01N 65°04' E 011°45'714.1
2017-Apr-28 08:30N 65°10' E 011°51'714.3
2017-Apr-28 08:00N 65°17' E 011°58'611.3
2017-Apr-28 07:30N 65°23' E 011°59'612.9
2017-Apr-28 07:00N 65°29' E 011°59'714.4
2017-Apr-28 06:30N 65°35' E 012°08'714.3
2017-Apr-28 06:00N 65°41' E 012°15'814.7
2017-Apr-28 05:30N 65°49' E 012°21'714.6
2017-Apr-28 05:00N 65°56' E 012°24'714.5
2017-Apr-28 04:30N 66°02' E 012°34'714.6
2017-Apr-28 04:00N 66°07' E 012°45'714.6
2017-Apr-28 03:30N 66°14' E 012°53'714.4
2017-Apr-28 03:00N 66°21' E 012°57'714.3
2017-Apr-28 02:30N 66°28' E 012°59'612.0
2017-Apr-28 02:00N 66°34' E 013°04'714.1
2017-Apr-28 01:30N 66°41' E 013°08'714.5
2017-Apr-28 01:00N 66°47' E 013°15'713.4
2017-Apr-28 00:30N 66°53' E 013°23'612.4
2017-Apr-28 00:00N 66°58' E 013°32'714.2
2017-Apr-27 23:30N 67°02' E 013°47'714.2
2017-Apr-27 23:00N 67°07' E 014°00'714.2
2017-Apr-27 22:30N 67°13' E 014°08'714.3
2017-Apr-27 22:00N 67°19' E 014°19'713.9
2017-Apr-27 21:30N 67°26' E 014°27'713.9
2017-Apr-27 21:00N 67°32' E 014°21'714.0
2017-Apr-27 20:30N 67°39' E 014°17'713.8
2017-Apr-27 20:00N 67°46' E 014°18'714.2
2017-Apr-27 19:30N 67°53' E 014°22'714.5
2017-Apr-27 19:00N 68°00' E 014°26'714.7
2017-Apr-27 18:30N 68°07' E 014°30'713.2
2017-Apr-27 18:00N 68°14' E 014°34'0 0.2
2017-Apr-27 17:30N 68°14' E 014°34'0 0.0
2017-Apr-27 17:00N 68°14' E 014°34'0 0.0
2017-Apr-27 16:30N 68°14' E 014°34'0 0.0
2017-Apr-27 16:00N 68°14' E 014°34'0 0.0
2017-Apr-27 15:30N 68°14' E 014°34'3 5.1
2017-Apr-27 15:00N 68°14' E 014°41'1111.2
2017-Apr-27 14:00N 68°21' E 015°03'612.8
2017-Apr-27 13:30N 68°27' E 015°11'5 9.6
2017-Apr-27 13:00N 68°29' E 014°59'4 8.2
2017-Apr-27 12:30N 68°30' E 014°48'0 0.0
2017-Apr-27 12:00N 68°30' E 014°48'1 1.9
2017-Apr-27 11:30N 68°29' E 014°50'713.8
2017-Apr-27 11:00N 68°33' E 015°06'714.6
2017-Apr-27 10:30N 68°38' E 015°21'4 8.6
2017-Apr-27 09:59N 68°42' E 015°25'0 0.0
2017-Apr-27 09:30N 68°42' E 015°25'0 0.0
2017-Apr-27 09:00N 68°42' E 015°25'0 0.0
2017-Apr-27 08:31N 68°42' E 015°25'0 0.0
2017-Apr-27 08:00N 68°42' E 015°25'0 0.0
2017-Apr-27 07:30N 68°42' E 015°25'0 0.0
2017-Apr-27 07:00N 68°42' E 015°25'0 0.0
2017-Apr-27 06:30N 68°42' E 015°25'0 0.3
2017-Apr-27 06:00N 68°42' E 015°25'713.3
2017-Apr-27 05:30N 68°49' E 015°26'714.5
2017-Apr-27 05:00N 68°56' E 015°23'714.3
2017-Apr-27 04:30N 69°03' E 015°25'714.6
2017-Apr-27 04:00N 69°10' E 015°32'714.8
2017-Apr-27 03:30N 69°16' E 015°42'714.6
2017-Apr-27 03:00N 69°22' E 015°56'714.5
2017-Apr-27 02:30N 69°26' E 016°13'714.5
2017-Apr-27 02:00N 69°29' E 016°31'714.8
2017-Apr-27 01:30N 69°32' E 016°50'815.2
2017-Apr-27 01:00N 69°35' E 017°10'815.2
2017-Apr-27 00:30N 69°39' E 017°30'713.9
2017-Apr-27 00:00N 69°37' E 017°49'814.9
2017-Apr-26 23:30N 69°32' E 018°05'714.1
2017-Apr-26 23:00N 69°32' E 018°25'713.8
2017-Apr-26 22:30N 69°33' E 018°44'612.3
2017-Apr-26 22:00N 69°38' E 018°57'0 0.0
2017-Apr-26 21:30N 69°38' E 018°57'0 0.0
2017-Apr-26 21:00N 69°38' E 018°57'0 0.0
2017-Apr-26 20:30N 69°38' E 018°57'0 0.0
2017-Apr-26 20:00N 69°38' E 018°57'0 0.0
2017-Apr-26 19:30N 69°38' E 018°57'0 0.0
2017-Apr-26 19:00N 69°38' E 018°57'0 0.0
2017-Apr-26 18:30N 69°38' E 018°57'2 3.7
2017-Apr-26 18:00N 69°39' E 018°58'0 0.1
2017-Apr-26 17:30N 69°39' E 018°58'0 0.0
2017-Apr-26 17:00N 69°39' E 018°58'0 0.0
2017-Apr-26 16:30N 69°39' E 018°58'0 0.0
2017-Apr-26 15:59N 69°39' E 018°58'0 0.0
2017-Apr-26 15:30N 69°39' E 018°58'0 0.0
2017-Apr-26 15:00N 69°39' E 018°58'0 0.0
2017-Apr-26 14:30N 69°39' E 018°58'1211.6
2017-Apr-26 13:30N 69°48' E 019°21'714.7
2017-Apr-26 13:00N 69°50' E 019°41'714.7
2017-Apr-26 12:30N 69°55' E 019°59'714.4
2017-Apr-26 12:00N 69°59' E 020°16'714.5
2017-Apr-26 11:30N 70°01' E 020°36'714.0
2017-Apr-26 11:00N 70°04' E 020°54'714.5
2017-Apr-26 10:30N 70°11' E 021°05'714.1
2017-Apr-26 10:00N 70°16' E 021°17'714.0
2017-Apr-26 09:30N 70°21' E 021°33'713.9
2017-Apr-26 09:00N 70°25' E 021°50'714.5
2017-Apr-26 08:30N 70°27' E 022°11'714.7
2017-Apr-26 08:00N 70°29' E 022°32'814.9
2017-Apr-26 07:30N 70°31' E 022°54'714.6
2017-Apr-26 07:00N 70°35' E 023°11'714.8
2017-Apr-26 06:30N 70°39' E 023°30'4 7.2
2017-Apr-26 06:00N 70°40' E 023°40'0 0.0
2017-Apr-26 05:30N 70°40' E 023°40'3 6.8
2017-Apr-26 05:00N 70°42' E 023°31'713.9
2017-Apr-26 04:30N 70°47' E 023°45'714.2
2017-Apr-26 04:00N 70°52' E 024°01'714.3
2017-Apr-26 03:30N 70°57' E 024°17'714.1
2017-Apr-26 03:01N 71°01' E 024°33'3 6.5
2017-Apr-26 02:30N 70°60' E 024°41'0 0.0
2017-Apr-26 02:00N 70°60' E 024°41'510.6
2017-Apr-26 01:30N 70°59' E 024°58'714.1
2017-Apr-26 01:00N 70°59' E 025°19'611.7
2017-Apr-26 00:30N 70°56' E 025°34'714.2
2017-Apr-26 00:00N 70°57' E 025°55'2 4.5
2017-Apr-25 23:30N 70°60' E 025°58'0 0.2
2017-Apr-25 23:00N 70°60' E 025°58'4 8.5
2017-Apr-25 22:30N 70°59' E 026°11'714.8
2017-Apr-25 22:00N 71°01' E 026°32'714.8
2017-Apr-25 21:30N 71°04' E 026°54'714.7
2017-Apr-25 21:00N 71°06' E 027°15'815.5
2017-Apr-25 20:30N 71°09' E 027°38'815.6
2017-Apr-25 20:00N 71°08' E 028°02'815.6
2017-Apr-25 19:30N 71°05' E 028°25'815.8
2017-Apr-25 19:00N 71°01' E 028°45'815.7
2017-Apr-25 18:30N 70°57' E 029°05'815.4
2017-Apr-25 18:00N 70°52' E 029°23'815.2
2017-Apr-25 17:30N 70°47' E 029°41'713.8
2017-Apr-25 17:00N 70°41' E 029°49'3 6.9
2017-Apr-25 16:30N 70°38' E 029°43'0 0.0
2017-Apr-25 16:00N 70°38' E 029°43'0 0.0
2017-Apr-25 15:30N 70°38' E 029°43'0 0.0
2017-Apr-25 14:59N 70°38' E 029°43'0 0.0
2017-Apr-25 14:00N 70°38' E 029°43'0 0.0
2017-Apr-25 13:29N 70°38' E 029°43'0 0.0
2017-Apr-25 13:00N 70°38' E 029°43'0 0.0
2017-Apr-25 12:30N 70°38' E 029°43'0 0.0
2017-Apr-25 12:00N 70°38' E 029°43'0 0.2
2017-Apr-25 11:30N 70°38' E 029°44'0 0.5
2017-Apr-25 11:00N 70°38' E 029°44'713.8
2017-Apr-25 10:29N 70°43' E 029°59'613.1
2017-Apr-25 10:01N 70°41' E 030°16'714.7
2017-Apr-25 09:31N 70°36' E 030°33'715.0
2017-Apr-25 09:01N 70°30' E 030°48'714.9
2017-Apr-25 08:30N 70°24' E 031°02'814.7
2017-Apr-25 08:00N 70°17' E 031°05'714.5
2017-Apr-25 07:30N 70°11' E 030°52'714.6
2017-Apr-25 07:00N 70°06' E 030°38'714.7
2017-Apr-25 06:30N 69°60' E 030°25'714.7
2017-Apr-25 06:00N 69°54' E 030°12'714.7
2017-Apr-25 05:30N 69°47' E 030°06'3 6.8
2017-Apr-25 05:00N 69°44' E 030°04'0 0.0
2017-Apr-25 04:30N 69°44' E 030°04'0 0.0
2017-Apr-25 04:00N 69°44' E 030°04'0 0.0
2017-Apr-25 03:30N 69°44' E 030°04'0 0.0
2017-Apr-25 03:00N 69°44' E 030°04'0 0.0
2017-Apr-25 02:30N 69°44' E 030°04'0 0.0
2017-Apr-25 02:00N 69°44' E 030°04'0 0.0
2017-Apr-25 01:30N 69°44' E 030°04'0 0.0
2017-Apr-25 01:00N 69°44' E 030°04'0 0.0
2017-Apr-25 00:30N 69°44' E 030°04'0 0.0
2017-Apr-25 00:00N 69°44' E 030°05'612.4
2017-Apr-24 23:30N 69°50' E 030°07'714.2
2017-Apr-24 23:00N 69°55' E 030°20'815.7
2017-Apr-24 22:30N 69°59' E 030°41'815.6
2017-Apr-24 22:00N 70°02' E 031°01'815.6
2017-Apr-24 21:30N 70°06' E 031°22'815.6
2017-Apr-24 21:00N 70°09' E 031°43'7210.7
2017-Apr-24 14:19N 69°03' E 033°05'5 6.3
2017-Apr-24 13:31N 68°58' E 033°02'0 0.6
2017-Apr-24 13:00N 68°58' E 033°03'0 0.0
2017-Apr-24 12:30N 68°58' E 033°03'0 0.0
2017-Apr-24 12:00N 68°58' E 033°03'0 0.0
2017-Apr-24 11:30N 68°58' E 033°03'0 0.0
2017-Apr-24 11:00N 68°58' E 033°03'0 0.0
2017-Apr-24 10:30N 68°58' E 033°03'0 0.0
2017-Apr-24 10:00N 68°58' E 033°03'0 0.0
2017-Apr-24 09:30N 68°58' E 033°03'0 0.0
2017-Apr-24 09:00N 68°58' E 033°03'0 0.0
2017-Apr-24 08:30N 68°58' E 033°03'0 0.0
2017-Apr-24 08:00N 68°58' E 033°03'0 0.0
2017-Apr-24 07:30N 68°58' E 033°03'0 0.0
2017-Apr-24 07:00N 68°58' E 033°03'0 0.0
2017-Apr-24 06:30N 68°58' E 033°03'0 0.0
2017-Apr-24 06:00N 68°58' E 033°03'0 0.0
2017-Apr-24 05:30N 68°58' E 033°03'0 0.0
2017-Apr-24 05:00N 68°58' E 033°03'0 0.0
2017-Apr-24 04:30N 68°58' E 033°03'0 0.0
2017-Apr-24 04:00N 68°58' E 033°03'0 0.0
2017-Apr-24 03:30N 68°58' E 033°03'0 0.0
2017-Apr-24 03:00N 68°58' E 033°03'0 0.0
2017-Apr-24 02:30N 68°58' E 033°03'0 0.0
2017-Apr-24 02:00N 68°58' E 033°03'0 0.0
2017-Apr-24 01:30N 68°58' E 033°03'0 0.0
2017-Apr-24 01:00N 68°58' E 033°03'0 0.0
2017-Apr-24 00:30N 68°58' E 033°03'0 0.0
2017-Apr-24 00:00N 68°58' E 033°03'0 0.0
2017-Apr-23 23:30N 68°58' E 033°03'0 0.0
2017-Apr-23 23:00N 68°58' E 033°03'0 0.0
2017-Apr-23 22:30N 68°58' E 033°03'0 0.0
2017-Apr-23 22:00N 68°58' E 033°03'0 0.0
2017-Apr-23 21:30N 68°58' E 033°03'0 0.0
2017-Apr-23 21:00N 68°58' E 033°03'2 3.2
2017-Apr-23 20:30N 68°56' E 033°02'0 0.0
2017-Apr-23 20:00N 68°56' E 033°02'0 0.0
2017-Apr-23 19:29N 68°56' E 033°02'0 0.0
2017-Apr-23 18:59N 68°56' E 033°02'0 0.0
2017-Apr-23 18:29N 68°56' E 033°02'0 0.0
2017-Apr-23 17:59N 68°56' E 033°02'0 0.0
2017-Apr-23 17:29N 68°56' E 033°02'0 0.0
2017-Apr-23 16:59N 68°56' E 033°02'0 0.0
2017-Apr-23 16:29N 68°56' E 033°02'0 0.0
2017-Apr-23 15:59N 68°56' E 033°02'0 0.0
2017-Apr-23 15:26N 68°56' E 033°02'0 0.0
2017-Apr-23 14:59N 68°56' E 033°02'0 0.0
2017-Apr-23 13:59N 68°56' E 033°02'0 0.0
2017-Apr-23 13:29N 68°56' E 033°02'0 0.0
2017-Apr-23 12:59N 68°56' E 033°02'0 0.0
2017-Apr-23 12:29N 68°56' E 033°02'0 0.0
2017-Apr-23 11:59N 68°56' E 033°02'0 0.0
2017-Apr-23 11:29N 68°56' E 033°02'0 0.0
2017-Apr-23 10:59N 68°56' E 033°02'0 0.0
2017-Apr-23 10:29N 68°56' E 033°02'0 0.0
2017-Apr-23 09:59N 68°56' E 033°02'0 0.0
2017-Apr-23 09:29N 68°56' E 033°02'0 0.0
2017-Apr-23 08:59N 68°56' E 033°02'0 0.0
2017-Apr-23 08:29N 68°56' E 033°02'0 0.0
2017-Apr-23 07:56N 68°56' E 033°02'0 0.0
2017-Apr-23 07:29N 68°56' E 033°02'0 0.0
2017-Apr-23 06:59N 68°56' E 033°02'0 0.0
2017-Apr-23 06:29N 68°56' E 033°02'0 0.0
2017-Apr-23 05:59N 68°56' E 033°02'0 0.0
2017-Apr-23 05:29N 68°56' E 033°02'0 0.0
2017-Apr-23 04:59N 68°56' E 033°02'0 0.0
2017-Apr-23 04:29N 68°56' E 033°02'0 0.0
2017-Apr-23 03:59N 68°56' E 033°02'0 0.0
2017-Apr-23 03:26N 68°56' E 033°02'0 0.0
2017-Apr-23 02:59N 68°56' E 033°02'0 0.0
2017-Apr-23 02:29N 68°56' E 033°02'0 0.0
2017-Apr-23 01:59N 68°56' E 033°02'0 0.0
2017-Apr-23 01:29N 68°56' E 033°02'0 0.0
2017-Apr-23 00:59N 68°56' E 033°02'0 0.0
2017-Apr-23 00:29N 68°56' E 033°02'0 0.0
2017-Apr-22 23:59N 68°56' E 033°02'0 0.0
2017-Apr-22 23:29N 68°56' E 033°02'0 0.0
2017-Apr-22 22:59N 68°56' E 033°02'0 0.0
2017-Apr-22 22:29N 68°56' E 033°02'0 0.0
2017-Apr-22 21:59N 68°56' E 033°02'0 0.0
2017-Apr-22 21:29N 68°56' E 033°02'0 0.0
2017-Apr-22 20:59N 68°56' E 033°02'0 0.0
2017-Apr-22 20:29N 68°56' E 033°02'0 0.0
2017-Apr-22 19:59N 68°56' E 033°02'0 0.0
2017-Apr-22 19:29N 68°56' E 033°02'0 0.0
2017-Apr-22 18:59N 68°56' E 033°02'0 0.0
2017-Apr-22 18:29N 68°56' E 033°02'0 0.0
2017-Apr-22 17:59N 68°56' E 033°02'0 0.0
2017-Apr-22 17:29N 68°56' E 033°02'0 0.0
2017-Apr-22 16:59N 68°56' E 033°02'0 0.0
2017-Apr-22 16:29N 68°56' E 033°02'0 0.0
2017-Apr-22 15:59N 68°56' E 033°02'0 0.0
2017-Apr-22 15:29N 68°56' E 033°02'0 0.0
2017-Apr-22 14:59N 68°56' E 033°02'0 0.0
2017-Apr-22 14:29N 68°56' E 033°02'0 0.0
2017-Apr-22 13:29N 68°56' E 033°02'0 0.0
2017-Apr-22 12:59N 68°56' E 033°02'0 0.0
2017-Apr-22 12:28N 68°56' E 033°02'0 0.0
2017-Apr-22 11:58N 68°56' E 033°02'0 0.0
2017-Apr-22 11:28N 68°56' E 033°02'0 0.0
2017-Apr-22 10:58N 68°56' E 033°02'0 0.0
2017-Apr-22 10:28N 68°56' E 033°02'0 0.0
2017-Apr-22 09:58N 68°56' E 033°02'0 0.0
2017-Apr-22 09:28N 68°56' E 033°02'0 0.0
2017-Apr-22 09:00N 68°56' E 033°02'2 4.2
2017-Apr-22 08:30N 68°59' E 033°02'3 6.6
2017-Apr-22 08:01N 69°02' E 033°03'71 7.2
2017-Apr-21 22:11N 70°10' E 032°02'210.6
2017-Apr-21 22:00N 70°10' E 031°56'510.5
2017-Apr-21 21:30N 70°09' E 031°41'510.7
2017-Apr-21 21:00N 70°07' E 031°27'510.8
2017-Apr-21 20:30N 70°04' E 031°12'511.1
2017-Apr-21 20:00N 70°02' E 030°58'611.0
2017-Apr-21 19:30N 69°59' E 030°44'611.1
2017-Apr-21 19:00N 69°57' E 030°29'611.2
2017-Apr-21 18:29N 69°54' E 030°15'611.4
2017-Apr-21 18:00N 69°49' E 030°06'611.4
2017-Apr-21 17:30N 69°44' E 030°04'0 0.0
2017-Apr-21 17:00N 69°44' E 030°04'0 0.0
2017-Apr-21 16:30N 69°44' E 030°04'0 0.2
2017-Apr-21 16:00N 69°44' E 030°05'713.0
2017-Apr-21 15:30N 69°50' E 030°07'714.0
2017-Apr-21 15:00N 69°56' E 030°17'714.7
2017-Apr-21 14:30N 70°02' E 030°30'1514.6
2017-Apr-21 13:30N 70°13' E 030°57'713.8
2017-Apr-21 13:00N 70°20' E 031°08'3 5.9
2017-Apr-21 12:29N 70°23' E 031°06'0 0.0
2017-Apr-21 12:00N 70°23' E 031°06'510.1
2017-Apr-21 11:30N 70°27' E 030°59'714.2
2017-Apr-21 11:00N 70°32' E 030°44'714.0
2017-Apr-21 10:30N 70°37' E 030°29'714.1
2017-Apr-21 10:00N 70°42' E 030°13'612.3
2017-Apr-21 09:29N 70°42' E 029°54'611.2
2017-Apr-21 09:00N 70°38' E 029°43'0 0.0
2017-Apr-21 08:30N 70°38' E 029°43'0 0.0
2017-Apr-21 08:00N 70°38' E 029°43'0 0.0
2017-Apr-21 07:30N 70°38' E 029°43'0 0.0
2017-Apr-21 07:00N 70°38' E 029°43'0 0.0
2017-Apr-21 06:29N 70°38' E 029°43'0 0.0
2017-Apr-21 06:00N 70°38' E 029°43'0 0.0
2017-Apr-21 05:30N 70°38' E 029°43'0 0.0
2017-Apr-21 05:00N 70°38' E 029°43'0 0.0
2017-Apr-21 04:30N 70°38' E 029°43'0 0.0
2017-Apr-21 04:00N 70°38' E 029°43'0 0.0
2017-Apr-21 03:30N 70°38' E 029°43'0 0.0
2017-Apr-21 03:00N 70°38' E 029°43'0 0.0
2017-Apr-21 02:29N 70°38' E 029°43'0 0.1
2017-Apr-21 02:00N 70°38' E 029°44'611.9
2017-Apr-21 01:31N 70°43' E 029°50'713.7
2017-Apr-21 01:00N 70°48' E 029°35'713.9
2017-Apr-21 00:30N 70°52' E 029°18'713.9
2017-Apr-21 00:00N 70°57' E 029°01'713.7
2017-Apr-20 23:30N 71°01' E 028°44'713.9
2017-Apr-20 23:00N 71°05' E 028°26'714.4
2017-Apr-20 22:30N 71°08' E 028°07'714.6
2017-Apr-20 22:00N 71°08' E 027°44'715.0
2017-Apr-20 21:30N 71°07' E 027°22'714.6
2017-Apr-20 21:00N 71°04' E 027°00'714.8
2017-Apr-20 20:30N 71°02' E 026°39'714.6
2017-Apr-20 20:00N 70°60' E 026°17'713.8
2017-Apr-20 19:30N 70°58' E 025°57'1 2.9
2017-Apr-20 19:00N 70°60' E 025°58'5 9.2
2017-Apr-20 18:29N 70°56' E 025°48'713.8
2017-Apr-20 18:00N 70°57' E 025°28'714.5
2017-Apr-20 17:30N 70°59' E 025°06'714.8
2017-Apr-20 17:01N 71°01' E 024°44'713.3
2017-Apr-20 16:30N 70°59' E 024°24'715.0
2017-Apr-20 16:00N 70°54' E 024°07'714.9
2017-Apr-20 15:30N 70°49' E 023°51'815.1
2017-Apr-20 15:00N 70°43' E 023°35'4 7.7
2017-Apr-20 14:30N 70°40' E 023°40'0 0.3
2017-Apr-20 13:30N 70°40' E 023°40'2 4.1
2017-Apr-20 13:00N 70°38' E 023°40'0 0.0
2017-Apr-20 12:30N 70°38' E 023°40'0 0.0
2017-Apr-20 12:00N 70°38' E 023°40'0 0.0
2017-Apr-20 11:30N 70°38' E 023°40'  
Track history (hours):
 
Tides and Currents Weather Stations Pressure Air Temp Water Temp Dewpoint Dewpoint Depression Visibility Wind Speed Wind Dir Waves Ship Positions

Svartfoss

Last reported at 2017-Apr-30 11:00 UTC. Time now 2017-Apr-30 11:07 UTC.
Position N 59°37' E 005°17'.

Length 80 m; draft 5.6 m.

Type: Cargo ship. MMSI: 304882000.

Date/timePositionNaut miles runAvg speedWind from/ knotsBaromVisibWave heightAir tempDewpointWater temp
2017-Apr-30 11:00N 59°37' E 005°17'715.2
2017-Apr-30 10:30N 59°43' E 005°26'714.0
2017-Apr-30 10:00N 59°49' E 005°33'713.8
2017-Apr-30 09:30N 59°55' E 005°29'713.5
2017-Apr-30 09:00N 60°01' E 005°20'714.3
2017-Apr-30 08:30N 60°08' E 005°17'714.3
2017-Apr-30 08:00N 60°14' E 005°10'713.1
2017-Apr-30 07:30N 60°20' E 005°11'5 9.7
2017-Apr-30 07:00N 60°24' E 005°18'1 1.7
2017-Apr-30 06:30N 60°23' E 005°19'0 0.0
2017-Apr-30 06:00N 60°23' E 005°19'0 0.0
2017-Apr-30 05:30N 60°23' E 005°19'0 0.9
2017-Apr-30 05:00N 60°23' E 005°18'612.1
2017-Apr-30 04:30N 60°29' E 005°14'714.5
2017-Apr-30 04:00N 60°33' E 005°01'612.5
2017-Apr-30 03:30N 60°38' E 004°54'714.3
2017-Apr-30 03:00N 60°44' E 004°47'713.8
2017-Apr-30 02:30N 60°51' E 004°46'815.0
2017-Apr-30 02:00N 60°59' E 004°45'714.6
2017-Apr-30 01:31N 61°06' E 004°44'714.5
2017-Apr-30 01:00N 61°13' E 004°41'4 8.6
2017-Apr-30 00:30N 61°17' E 004°38'0 0.1
2017-Apr-30 00:00N 61°17' E 004°38'4 8.5
2017-Apr-29 23:30N 61°17' E 004°47'714.6
2017-Apr-29 23:00N 61°24' E 004°50'714.4
2017-Apr-29 22:30N 61°30' E 004°59'713.1
2017-Apr-29 21:59N 61°37' E 004°58'714.6
2017-Apr-29 21:30N 61°44' E 004°58'714.8
2017-Apr-29 21:00N 61°49' E 005°09'4 7.9
2017-Apr-29 20:30N 61°53' E 005°11'611.9
2017-Apr-29 20:00N 61°59' E 005°09'714.7
2017-Apr-29 19:30N 62°06' E 005°06'713.8
2017-Apr-29 19:00N 62°13' E 005°07'815.2
2017-Apr-29 18:31N 62°16' E 005°21'715.0
2017-Apr-29 18:00N 62°18' E 005°36'713.0
2017-Apr-29 17:30N 62°22' E 005°48'713.7
2017-Apr-29 17:00N 62°26' E 005°60'4 9.0
2017-Apr-29 16:30N 62°28' E 006°09'0 0.2
2017-Apr-29 16:00N 62°28' E 006°08'0 0.0
2017-Apr-29 15:30N 62°28' E 006°08'0 0.0
2017-Apr-29 15:00N 62°28' E 006°08'0 0.0
2017-Apr-29 14:30N 62°28' E 006°08'0 0.0
2017-Apr-29 13:30N 62°28' E 006°08'1 2.2
2017-Apr-29 13:00N 62°28' E 006°10'2 3.2
2017-Apr-29 12:30N 62°29' E 006°11'3 6.4
2017-Apr-29 12:00N 62°29' E 006°18'0 0.0
2017-Apr-29 11:30N 62°29' E 006°18'0 0.0
2017-Apr-29 11:00N 62°29' E 006°18'0 0.0
2017-Apr-29 10:30N 62°29' E 006°18'3 5.5
2017-Apr-29 09:59N 62°30' E 006°24'0 0.0
2017-Apr-29 09:30N 62°30' E 006°24'0 0.0
2017-Apr-29 09:00N 62°30' E 006°24'1 1.3
2017-Apr-29 08:30N 62°30' E 006°23'0 0.0
2017-Apr-29 08:00N 62°30' E 006°23'0 0.6
2017-Apr-29 07:30N 62°30' E 006°23'511.0
2017-Apr-29 07:00N 62°29' E 006°12'0 0.1
2017-Apr-29 06:30N 62°29' E 006°11'0 0.0
2017-Apr-29 06:00N 62°29' E 006°11'1 2.5
2017-Apr-29 05:30N 62°29' E 006°09'1 1.3
2017-Apr-29 05:00N 62°28' E 006°08'510.6
2017-Apr-29 04:31N 62°33' E 006°11'611.7
2017-Apr-29 04:00N 62°38' E 006°20'713.7
2017-Apr-29 03:30N 62°43' E 006°29'714.1
2017-Apr-29 03:00N 62°49' E 006°37'713.8
2017-Apr-29 02:30N 62°55' E 006°46'713.5
2017-Apr-29 02:01N 62°59' E 006°57'714.4
2017-Apr-29 01:30N 63°02' E 007°11'714.4
2017-Apr-29 01:00N 63°05' E 007°26'714.5
2017-Apr-29 00:31N 63°08' E 007°40'714.4
2017-Apr-29 00:01N 63°12' E 007°53'714.3
2017-Apr-28 23:31N 63°16' E 008°06'713.8
2017-Apr-28 23:01N 63°20' E 008°19'714.1
2017-Apr-28 22:30N 63°24' E 008°32'714.5
2017-Apr-28 22:00N 63°27' E 008°47'714.5
2017-Apr-28 21:30N 63°29' E 009°02'713.7
2017-Apr-28 21:00N 63°33' E 009°15'2 3.5
2017-Apr-28 20:30N 63°34' E 009°12'0 0.0
2017-Apr-28 19:59N 63°34' E 009°12'0 0.0
2017-Apr-28 19:30N 63°34' E 009°12'0 0.0
2017-Apr-28 18:59N 63°34' E 009°12'3 5.5
2017-Apr-28 18:30N 63°36' E 009°15'613.0
2017-Apr-28 18:00N 63°43' E 009°18'714.5
2017-Apr-28 17:30N 63°46' E 009°32'714.3
2017-Apr-28 17:00N 63°52' E 009°42'713.9
2017-Apr-28 16:30N 63°58' E 009°51'713.4
2017-Apr-28 16:00N 64°03' E 010°01'3 5.0
2017-Apr-28 15:30N 64°05' E 010°00'713.9
2017-Apr-28 15:00N 64°11' E 010°09'1313.4
2017-Apr-28 14:00N 64°23' E 010°24'713.7
2017-Apr-28 13:30N 64°29' E 010°29'714.4
2017-Apr-28 13:00N 64°35' E 010°39'714.4
2017-Apr-28 12:30N 64°40' E 010°49'714.4
2017-Apr-28 12:00N 64°45' E 011°01'714.2
2017-Apr-28 11:30N 64°51' E 011°12'1 2.4
2017-Apr-28 11:00N 64°52' E 011°14'0 0.0
2017-Apr-28 10:30N 64°52' E 011°14'4 7.3
2017-Apr-28 10:00N 64°54' E 011°21'714.4
2017-Apr-28 09:30N 64°58' E 011°34'713.7
2017-Apr-28 09:01N 65°04' E 011°45'714.1
2017-Apr-28 08:30N 65°10' E 011°51'714.3
2017-Apr-28 08:00N 65°17' E 011°58'611.3
2017-Apr-28 07:30N 65°23' E 011°59'612.9
2017-Apr-28 07:00N 65°29' E 011°59'714.4
2017-Apr-28 06:30N 65°35' E 012°08'714.3
2017-Apr-28 06:00N 65°41' E 012°15'814.7
2017-Apr-28 05:30N 65°49' E 012°21'714.6
2017-Apr-28 05:00N 65°56' E 012°24'714.5
2017-Apr-28 04:30N 66°02' E 012°34'714.6
2017-Apr-28 04:00N 66°07' E 012°45'714.6
2017-Apr-28 03:30N 66°14' E 012°53'714.4
2017-Apr-28 03:00N 66°21' E 012°57'714.3
2017-Apr-28 02:30N 66°28' E 012°59'612.0
2017-Apr-28 02:00N 66°34' E 013°04'714.1
2017-Apr-28 01:30N 66°41' E 013°08'714.5
2017-Apr-28 01:00N 66°47' E 013°15'713.4
2017-Apr-28 00:30N 66°53' E 013°23'612.4
2017-Apr-28 00:00N 66°58' E 013°32'714.2
2017-Apr-27 23:30N 67°02' E 013°47'714.2
2017-Apr-27 23:00N 67°07' E 014°00'714.2
2017-Apr-27 22:30N 67°13' E 014°08'714.3
2017-Apr-27 22:00N 67°19' E 014°19'713.9
2017-Apr-27 21:30N 67°26' E 014°27'713.9
2017-Apr-27 21:00N 67°32' E 014°21'714.0
2017-Apr-27 20:30N 67°39' E 014°17'713.8
2017-Apr-27 20:00N 67°46' E 014°18'714.2
2017-Apr-27 19:30N 67°53' E 014°22'714.5
2017-Apr-27 19:00N 68°00' E 014°26'714.7
2017-Apr-27 18:30N 68°07' E 014°30'713.2
2017-Apr-27 18:00N 68°14' E 014°34'0 0.2
2017-Apr-27 17:30N 68°14' E 014°34'0 0.0
2017-Apr-27 17:00N 68°14' E 014°34'0 0.0
2017-Apr-27 16:30N 68°14' E 014°34'0 0.0
2017-Apr-27 16:00N 68°14' E 014°34'0 0.0
2017-Apr-27 15:30N 68°14' E 014°34'3 5.1
2017-Apr-27 15:00N 68°14' E 014°41'1111.2
2017-Apr-27 14:00N 68°21' E 015°03'612.8
2017-Apr-27 13:30N 68°27' E 015°11'5 9.6
2017-Apr-27 13:00N 68°29' E 014°59'4 8.2
2017-Apr-27 12:30N 68°30' E 014°48'0 0.0
2017-Apr-27 12:00N 68°30' E 014°48'1 1.9
2017-Apr-27 11:30N 68°29' E 014°50'713.8
2017-Apr-27 11:00N 68°33' E 015°06'714.6
2017-Apr-27 10:30N 68°38' E 015°21'4 8.6
2017-Apr-27 09:59N 68°42' E 015°25'0 0.0
2017-Apr-27 09:30N 68°42' E 015°25'0 0.0
2017-Apr-27 09:00N 68°42' E 015°25'0 0.0
2017-Apr-27 08:31N 68°42' E 015°25'0 0.0
2017-Apr-27 08:00N 68°42' E 015°25'0 0.0
2017-Apr-27 07:30N 68°42' E 015°25'0 0.0
2017-Apr-27 07:00N 68°42' E 015°25'0 0.0
2017-Apr-27 06:30N 68°42' E 015°25'0 0.3
2017-Apr-27 06:00N 68°42' E 015°25'713.3
2017-Apr-27 05:30N 68°49' E 015°26'714.5
2017-Apr-27 05:00N 68°56' E 015°23'714.3
2017-Apr-27 04:30N 69°03' E 015°25'714.6
2017-Apr-27 04:00N 69°10' E 015°32'714.8
2017-Apr-27 03:30N 69°16' E 015°42'714.6
2017-Apr-27 03:00N 69°22' E 015°56'714.5
2017-Apr-27 02:30N 69°26' E 016°13'714.5
2017-Apr-27 02:00N 69°29' E 016°31'714.8
2017-Apr-27 01:30N 69°32' E 016°50'815.2
2017-Apr-27 01:00N 69°35' E 017°10'815.2
2017-Apr-27 00:30N 69°39' E 017°30'713.9
2017-Apr-27 00:00N 69°37' E 017°49'814.9
2017-Apr-26 23:30N 69°32' E 018°05'714.1
2017-Apr-26 23:00N 69°32' E 018°25'713.8
2017-Apr-26 22:30N 69°33' E 018°44'612.3
2017-Apr-26 22:00N 69°38' E 018°57'0 0.0
2017-Apr-26 21:30N 69°38' E 018°57'0 0.0
2017-Apr-26 21:00N 69°38' E 018°57'0 0.0
2017-Apr-26 20:30N 69°38' E 018°57'0 0.0
2017-Apr-26 20:00N 69°38' E 018°57'0 0.0
2017-Apr-26 19:30N 69°38' E 018°57'0 0.0
2017-Apr-26 19:00N 69°38' E 018°57'0 0.0
2017-Apr-26 18:30N 69°38' E 018°57'2 3.7
2017-Apr-26 18:00N 69°39' E 018°58'0 0.1
2017-Apr-26 17:30N 69°39' E 018°58'0 0.0
2017-Apr-26 17:00N 69°39' E 018°58'0 0.0
2017-Apr-26 16:30N 69°39' E 018°58'0 0.0
2017-Apr-26 15:59N 69°39' E 018°58'0 0.0
2017-Apr-26 15:30N 69°39' E 018°58'0 0.0
2017-Apr-26 15:00N 69°39' E 018°58'0 0.0
2017-Apr-26 14:30N 69°39' E 018°58'1211.6
2017-Apr-26 13:30N 69°48' E 019°21'714.7
2017-Apr-26 13:00N 69°50' E 019°41'714.7
2017-Apr-26 12:30N 69°55' E 019°59'714.4
2017-Apr-26 12:00N 69°59' E 020°16'714.5
2017-Apr-26 11:30N 70°01' E 020°36'714.0
2017-Apr-26 11:00N 70°04' E 020°54'714.5
2017-Apr-26 10:30N 70°11' E 021°05'714.1
2017-Apr-26 10:00N 70°16' E 021°17'714.0
2017-Apr-26 09:30N 70°21' E 021°33'713.9
2017-Apr-26 09:00N 70°25' E 021°50'714.5
2017-Apr-26 08:30N 70°27' E 022°11'714.7
2017-Apr-26 08:00N 70°29' E 022°32'814.9
2017-Apr-26 07:30N 70°31' E 022°54'714.6
2017-Apr-26 07:00N 70°35' E 023°11'714.8
2017-Apr-26 06:30N 70°39' E 023°30'4 7.2
2017-Apr-26 06:00N 70°40' E 023°40'0 0.0
2017-Apr-26 05:30N 70°40' E 023°40'3 6.8
2017-Apr-26 05:00N 70°42' E 023°31'713.9
2017-Apr-26 04:30N 70°47' E 023°45'714.2
2017-Apr-26 04:00N 70°52' E 024°01'714.3
2017-Apr-26 03:30N 70°57' E 024°17'714.1
2017-Apr-26 03:01N 71°01' E 024°33'3 6.5
2017-Apr-26 02:30N 70°60' E 024°41'0 0.0
2017-Apr-26 02:00N 70°60' E 024°41'510.6
2017-Apr-26 01:30N 70°59' E 024°58'714.1
2017-Apr-26 01:00N 70°59' E 025°19'611.7
2017-Apr-26 00:30N 70°56' E 025°34'714.2
2017-Apr-26 00:00N 70°57' E 025°55'2 4.5
2017-Apr-25 23:30N 70°60' E 025°58'0 0.2
2017-Apr-25 23:00N 70°60' E 025°58'4 8.5
2017-Apr-25 22:30N 70°59' E 026°11'714.8
2017-Apr-25 22:00N 71°01' E 026°32'714.8
2017-Apr-25 21:30N 71°04' E 026°54'714.7
2017-Apr-25 21:00N 71°06' E 027°15'815.5
2017-Apr-25 20:30N 71°09' E 027°38'815.6
2017-Apr-25 20:00N 71°08' E 028°02'815.6
2017-Apr-25 19:30N 71°05' E 028°25'815.8
2017-Apr-25 19:00N 71°01' E 028°45'815.7
2017-Apr-25 18:30N 70°57' E 029°05'815.4
2017-Apr-25 18:00N 70°52' E 029°23'815.2
2017-Apr-25 17:30N 70°47' E 029°41'713.8
2017-Apr-25 17:00N 70°41' E 029°49'3 6.9
2017-Apr-25 16:30N 70°38' E 029°43'0 0.0
2017-Apr-25 16:00N 70°38' E 029°43'0 0.0
2017-Apr-25 15:30N 70°38' E 029°43'0 0.0
2017-Apr-25 14:59N 70°38' E 029°43'0 0.0
2017-Apr-25 14:00N 70°38' E 029°43'0 0.0
2017-Apr-25 13:29N 70°38' E 029°43'0 0.0
2017-Apr-25 13:00N 70°38' E 029°43'0 0.0
2017-Apr-25 12:30N 70°38' E 029°43'0 0.0
2017-Apr-25 12:00N 70°38' E 029°43'0 0.2
2017-Apr-25 11:30N 70°38' E 029°44'0 0.5
2017-Apr-25 11:00N 70°38' E 029°44'713.8
2017-Apr-25 10:29N 70°43' E 029°59'613.1
2017-Apr-25 10:01N 70°41' E 030°16'714.7
2017-Apr-25 09:31N 70°36' E 030°33'715.0
2017-Apr-25 09:01N 70°30' E 030°48'714.9
2017-Apr-25 08:30N 70°24' E 031°02'814.7
2017-Apr-25 08:00N 70°17' E 031°05'714.5
2017-Apr-25 07:30N 70°11' E 030°52'714.6
2017-Apr-25 07:00N 70°06' E 030°38'714.7
2017-Apr-25 06:30N 69°60' E 030°25'714.7
2017-Apr-25 06:00N 69°54' E 030°12'714.7
2017-Apr-25 05:30N 69°47' E 030°06'3 6.8
2017-Apr-25 05:00N 69°44' E 030°04'0 0.0
2017-Apr-25 04:30N 69°44' E 030°04'0 0.0
2017-Apr-25 04:00N 69°44' E 030°04'0 0.0
2017-Apr-25 03:30N 69°44' E 030°04'0 0.0
2017-Apr-25 03:00N 69°44' E 030°04'0 0.0
2017-Apr-25 02:30N 69°44' E 030°04'0 0.0
2017-Apr-25 02:00N 69°44' E 030°04'0 0.0
2017-Apr-25 01:30N 69°44' E 030°04'0 0.0
2017-Apr-25 01:00N 69°44' E 030°04'0 0.0
2017-Apr-25 00:30N 69°44' E 030°04'0 0.0
2017-Apr-25 00:00N 69°44' E 030°05'612.4
2017-Apr-24 23:30N 69°50' E 030°07'714.2
2017-Apr-24 23:00N 69°55' E 030°20'815.7
2017-Apr-24 22:30N 69°59' E 030°41'815.6
2017-Apr-24 22:00N 70°02' E 031°01'815.6
2017-Apr-24 21:30N 70°06' E 031°22'815.6
2017-Apr-24 21:00N 70°09' E 031°43'7210.7
2017-Apr-24 14:19N 69°03' E 033°05'5 6.3
2017-Apr-24 13:31N 68°58' E 033°02'0 0.6
2017-Apr-24 13:00N 68°58' E 033°03'0 0.0
2017-Apr-24 12:30N 68°58' E 033°03'0 0.0
2017-Apr-24 12:00N 68°58' E 033°03'0 0.0
2017-Apr-24 11:30N 68°58' E 033°03'0 0.0
2017-Apr-24 11:00N 68°58' E 033°03'0 0.0
2017-Apr-24 10:30N 68°58' E 033°03'0 0.0
2017-Apr-24 10:00N 68°58' E 033°03'0 0.0
2017-Apr-24 09:30N 68°58' E 033°03'0 0.0
2017-Apr-24 09:00N 68°58' E 033°03'0 0.0
2017-Apr-24 08:30N 68°58' E 033°03'0 0.0
2017-Apr-24 08:00N 68°58' E 033°03'0 0.0
2017-Apr-24 07:30N 68°58' E 033°03'0 0.0
2017-Apr-24 07:00N 68°58' E 033°03'0 0.0
2017-Apr-24 06:30N 68°58' E 033°03'0 0.0
2017-Apr-24 06:00N 68°58' E 033°03'0 0.0
2017-Apr-24 05:30N 68°58' E 033°03'0 0.0
2017-Apr-24 05:00N 68°58' E 033°03'0 0.0
2017-Apr-24 04:30N 68°58' E 033°03'0 0.0
2017-Apr-24 04:00N 68°58' E 033°03'0 0.0
2017-Apr-24 03:30N 68°58' E 033°03'0 0.0
2017-Apr-24 03:00N 68°58' E 033°03'0 0.0
2017-Apr-24 02:30N 68°58' E 033°03'0 0.0
2017-Apr-24 02:00N 68°58' E 033°03'0 0.0
2017-Apr-24 01:30N 68°58' E 033°03'0 0.0
2017-Apr-24 01:00N 68°58' E 033°03'0 0.0
2017-Apr-24 00:30N 68°58' E 033°03'0 0.0
2017-Apr-24 00:00N 68°58' E 033°03'0 0.0
2017-Apr-23 23:30N 68°58' E 033°03'0 0.0
2017-Apr-23 23:00N 68°58' E 033°03'0 0.0
2017-Apr-23 22:30N 68°58' E 033°03'0 0.0
2017-Apr-23 22:00N 68°58' E 033°03'0 0.0
2017-Apr-23 21:30N 68°58' E 033°03'0 0.0
2017-Apr-23 21:00N 68°58' E 033°03'2 3.2
2017-Apr-23 20:30N 68°56' E 033°02'0 0.0
2017-Apr-23 20:00N 68°56' E 033°02'0 0.0
2017-Apr-23 19:29N 68°56' E 033°02'0 0.0
2017-Apr-23 18:59N 68°56' E 033°02'0 0.0
2017-Apr-23 18:29N 68°56' E 033°02'0 0.0
2017-Apr-23 17:59N 68°56' E 033°02'0 0.0
2017-Apr-23 17:29N 68°56' E 033°02'0 0.0
2017-Apr-23 16:59N 68°56' E 033°02'0 0.0
2017-Apr-23 16:29N 68°56' E 033°02'0 0.0
2017-Apr-23 15:59N 68°56' E 033°02'0 0.0
2017-Apr-23 15:26N 68°56' E 033°02'0 0.0
2017-Apr-23 14:59N 68°56' E 033°02'0 0.0
2017-Apr-23 13:59N 68°56' E 033°02'0 0.0
2017-Apr-23 13:29N 68°56' E 033°02'0 0.0
2017-Apr-23 12:59N 68°56' E 033°02'0 0.0
2017-Apr-23 12:29N 68°56' E 033°02'0 0.0
2017-Apr-23 11:59N 68°56' E 033°02'0 0.0
2017-Apr-23 11:29N 68°56' E 033°02'0 0.0
2017-Apr-23 10:59N 68°56' E 033°02'0 0.0
2017-Apr-23 10:29N 68°56' E 033°02'0 0.0
2017-Apr-23 09:59N 68°56' E 033°02'0 0.0
2017-Apr-23 09:29N 68°56' E 033°02'0 0.0
2017-Apr-23 08:59N 68°56' E 033°02'0 0.0
2017-Apr-23 08:29N 68°56' E 033°02'0 0.0
2017-Apr-23 07:56N 68°56' E 033°02'0 0.0
2017-Apr-23 07:29N 68°56' E 033°02'0 0.0
2017-Apr-23 06:59N 68°56' E 033°02'0 0.0
2017-Apr-23 06:29N 68°56' E 033°02'0 0.0
2017-Apr-23 05:59N 68°56' E 033°02'0 0.0
2017-Apr-23 05:29N 68°56' E 033°02'0 0.0
2017-Apr-23 04:59N 68°56' E 033°02'0 0.0
2017-Apr-23 04:29N 68°56' E 033°02'0 0.0
2017-Apr-23 03:59N 68°56' E 033°02'0 0.0
2017-Apr-23 03:26N 68°56' E 033°02'0 0.0
2017-Apr-23 02:59N 68°56' E 033°02'0 0.0
2017-Apr-23 02:29N 68°56' E 033°02'0 0.0
2017-Apr-23 01:59N 68°56' E 033°02'0 0.0
2017-Apr-23 01:29N 68°56' E 033°02'0 0.0
2017-Apr-23 00:59N 68°56' E 033°02'0 0.0
2017-Apr-23 00:29N 68°56' E 033°02'0 0.0
2017-Apr-22 23:59N 68°56' E 033°02'0 0.0
2017-Apr-22 23:29N 68°56' E 033°02'0 0.0
2017-Apr-22 22:59N 68°56' E 033°02'0 0.0
2017-Apr-22 22:29N 68°56' E 033°02'0 0.0
2017-Apr-22 21:59N 68°56' E 033°02'0 0.0
2017-Apr-22 21:29N 68°56' E 033°02'0 0.0
2017-Apr-22 20:59N 68°56' E 033°02'0 0.0
2017-Apr-22 20:29N 68°56' E 033°02'0 0.0
2017-Apr-22 19:59N 68°56' E 033°02'0 0.0
2017-Apr-22 19:29N 68°56' E 033°02'0 0.0
2017-Apr-22 18:59N 68°56' E 033°02'0 0.0
2017-Apr-22 18:29N 68°56' E 033°02'0 0.0
2017-Apr-22 17:59N 68°56' E 033°02'0 0.0
2017-Apr-22 17:29N 68°56' E 033°02'0 0.0
2017-Apr-22 16:59N 68°56' E 033°02'0 0.0
2017-Apr-22 16:29N 68°56' E 033°02'0 0.0
2017-Apr-22 15:59N 68°56' E 033°02'0 0.0
2017-Apr-22 15:29N 68°56' E 033°02'0 0.0
2017-Apr-22 14:59N 68°56' E 033°02'0 0.0
2017-Apr-22 14:29N 68°56' E 033°02'0 0.0
2017-Apr-22 13:29N 68°56' E 033°02'0 0.0
2017-Apr-22 12:59N 68°56' E 033°02'0 0.0
2017-Apr-22 12:28N 68°56' E 033°02'0 0.0
2017-Apr-22 11:58N 68°56' E 033°02'0 0.0
2017-Apr-22 11:28N 68°56' E 033°02'0 0.0
2017-Apr-22 10:58N 68°56' E 033°02'0 0.0
2017-Apr-22 10:28N 68°56' E 033°02'0 0.0
2017-Apr-22 09:58N 68°56' E 033°02'0 0.0
2017-Apr-22 09:28N 68°56' E 033°02'0 0.0
2017-Apr-22 09:00N 68°56' E 033°02'2 4.2
2017-Apr-22 08:30N 68°59' E 033°02'3 6.6
2017-Apr-22 08:01N 69°02' E 033°03'71 7.2
2017-Apr-21 22:11N 70°10' E 032°02'210.6
2017-Apr-21 22:00N 70°10' E 031°56'510.5
2017-Apr-21 21:30N 70°09' E 031°41'510.7
2017-Apr-21 21:00N 70°07' E 031°27'510.8
2017-Apr-21 20:30N 70°04' E 031°12'511.1
2017-Apr-21 20:00N 70°02' E 030°58'611.0
2017-Apr-21 19:30N 69°59' E 030°44'611.1
2017-Apr-21 19:00N 69°57' E 030°29'611.2
2017-Apr-21 18:29N 69°54' E 030°15'611.4
2017-Apr-21 18:00N 69°49' E 030°06'611.4
2017-Apr-21 17:30N 69°44' E 030°04'0 0.0
2017-Apr-21 17:00N 69°44' E 030°04'0 0.0
2017-Apr-21 16:30N 69°44' E 030°04'0 0.2
2017-Apr-21 16:00N 69°44' E 030°05'713.0
2017-Apr-21 15:30N 69°50' E 030°07'714.0
2017-Apr-21 15:00N 69°56' E 030°17'714.7
2017-Apr-21 14:30N 70°02' E 030°30'1514.6
2017-Apr-21 13:30N 70°13' E 030°57'713.8
2017-Apr-21 13:00N 70°20' E 031°08'3 5.9
2017-Apr-21 12:29N 70°23' E 031°06'0 0.0
2017-Apr-21 12:00N 70°23' E 031°06'510.1
2017-Apr-21 11:30N 70°27' E 030°59'714.2
2017-Apr-21 11:00N 70°32' E 030°44'714.0
2017-Apr-21 10:30N 70°37' E 030°29'714.1
2017-Apr-21 10:00N 70°42' E 030°13'612.3
2017-Apr-21 09:29N 70°42' E 029°54'611.2
2017-Apr-21 09:00N 70°38' E 029°43'0 0.0
2017-Apr-21 08:30N 70°38' E 029°43'0 0.0
2017-Apr-21 08:00N 70°38' E 029°43'0 0.0
2017-Apr-21 07:30N 70°38' E 029°43'0 0.0
2017-Apr-21 07:00N 70°38' E 029°43'0 0.0
2017-Apr-21 06:29N 70°38' E 029°43'0 0.0
2017-Apr-21 06:00N 70°38' E 029°43'0 0.0
2017-Apr-21 05:30N 70°38' E 029°43'0 0.0
2017-Apr-21 05:00N 70°38' E 029°43'0 0.0
2017-Apr-21 04:30N 70°38' E 029°43'0 0.0
2017-Apr-21 04:00N 70°38' E 029°43'0 0.0
2017-Apr-21 03:30N 70°38' E 029°43'0 0.0
2017-Apr-21 03:00N 70°38' E 029°43'0 0.0
2017-Apr-21 02:29N 70°38' E 029°43'0 0.1
2017-Apr-21 02:00N 70°38' E 029°44'611.9
2017-Apr-21 01:31N 70°43' E 029°50'713.7
2017-Apr-21 01:00N 70°48' E 029°35'713.9
2017-Apr-21 00:30N 70°52' E 029°18'713.9
2017-Apr-21 00:00N 70°57' E 029°01'713.7
2017-Apr-20 23:30N 71°01' E 028°44'713.9
2017-Apr-20 23:00N 71°05' E 028°26'714.4
2017-Apr-20 22:30N 71°08' E 028°07'714.6
2017-Apr-20 22:00N 71°08' E 027°44'715.0
2017-Apr-20 21:30N 71°07' E 027°22'714.6
2017-Apr-20 21:00N 71°04' E 027°00'714.8
2017-Apr-20 20:30N 71°02' E 026°39'714.6
2017-Apr-20 20:00N 70°60' E 026°17'713.8
2017-Apr-20 19:30N 70°58' E 025°57'1 2.9
2017-Apr-20 19:00N 70°60' E 025°58'5 9.2
2017-Apr-20 18:29N 70°56' E 025°48'713.8
2017-Apr-20 18:00N 70°57' E 025°28'714.5
2017-Apr-20 17:30N 70°59' E 025°06'714.8
2017-Apr-20 17:01N 71°01' E 024°44'713.3
2017-Apr-20 16:30N 70°59' E 024°24'715.0
2017-Apr-20 16:00N 70°54' E 024°07'714.9
2017-Apr-20 15:30N 70°49' E 023°51'815.1
2017-Apr-20 15:00N 70°43' E 023°35'4 7.7
2017-Apr-20 14:30N 70°40' E 023°40'0 0.3
2017-Apr-20 13:30N 70°40' E 023°40'2 4.1
2017-Apr-20 13:00N 70°38' E 023°40'0 0.0
2017-Apr-20 12:30N 70°38' E 023°40'0 0.0
2017-Apr-20 12:00N 70°38' E 023°40'0 0.0
2017-Apr-20 11:30N 70°38' E 023°40'  

Dump ship's entire track history